Tiempo atmosférico en la estación meteorológica de Agüimes, Las Palmas (306 m.)



Fecha
DESCASC
Temp. máxima en grados centígrados (hora)
DESCASC
Temp. mínima en grados centígrados (hora)
DESCASC
Temp. media en grados centígrados
DESCASC
Racha de viento máxima en m/sg (hora)
DESCASC
Velocidad máxima media en intervalos de 10 minutos(hora)
DESCASC
Precipitaciones diarias en mm
DESCASC
Precipitaciones de 00:00 a 06:00 en mm
DESCASC
Precipitaciones de 06:00 a 12:00 en mm
DESCASC
Precipitaciones de 12:00 a 18:00 en mm
DESCASC
Precipitaciones de 18:00 a 24:00 en mm
DESCASC
20-09-2018 28.2 (14:10) 19.1 (07:00) 23.7 12.78 (18:40) 8.33 (18:50) 0 0 0 0 0
19-09-2018 28.9 (14:20) 19.6 (07:20) 24.3 12.5 (03:50) 8.89 (03:30) 0 0 0 0 0
18-09-2018 27.2 (14:30) 20.1 (00:00) 23.7 13.06 (23:40) 9.44 (23:40) 0 0 0 0 0
17-09-2018 26.5 (15:40) 17.8 (06:20) 22.1 13.89 (14:20) 9.72 (13:30) 0 0 0 0 0
16-09-2018 28.3 (12:50) 20.2 (00:00) 24.3 15 (14:00) 10 (14:00) 0 0 0 0 0
15-09-2018 29.3 (13:10) 20.8 (00:00) 25 13.33 (21:10) 8.89 (13:20) 0 0 0 0 0
14-09-2018 29.7 (16:10) 21.2 (00:00) 25.5 7.5 (01:10) 5.56 (02:30) 0 0 0 0 0
13-09-2018 31.7 (16:30) 22.7 (00:00) 27.2 7.78 (23:20) 6.11 (23:10) 0 0 0 0 0
12-09-2018 29.5 (17:10) 20.1 (00:00) 24.8 12.5 (02:40) 8.89 (02:30) 0 0 0 0 0
11-09-2018 26 (16:10) 18.9 (00:00) 22.4 15.83 (13:50) 11.11 (14:00) 0 0 0 0 0
10-09-2018 26.3 (15:30) 19.3 (00:00) 22.8 18.89 (00:20) 12.78 (03:50) 0 0 0 0 0
09-09-2018 26.2 (15:10) 19.1 (00:00) 22.7 18.33 (22:00) 12.5 (22:20) 0 0 0 0 0
08-09-2018 25.2 (13:50) 18.6 (00:00) 21.9 15.83 (12:50) 11.39 (14:40) 0 0 0 0 0
07-09-2018 25.8 (13:20) 19.4 (00:00) 22.6 16.11 (00:50) 10.28 (01:00) 0 0 0 0 0
06-09-2018 27.1 (14:50) 20.3 (00:00) 23.7 17.22 (00:50) 11.39 (02:30) 0.4 0.4 0 0 0
05-09-2018 28.7 (14:30) 20 (00:00) 24.4 17.22 (10:40) 11.67 (14:50) 0 0 0 0 0
04-09-2018 27 (13:00) 19.3 (00:00) 23.1 15.83 (14:40) 11.11 (15:30) 0 0 0 0 0
03-09-2018 28.2 (16:00) 19.6 (00:00) 23.9 17.5 (05:00) 11.11 (04:50) 0 0 0 0 0
02-09-2018 33 (16:00) 17.1 (00:00) 25.1 14.17 (23:40) 9.44 (23:30) 0 0 0 0 0
01-09-2018 27.4 (14:20) 17.8 (00:00) 22.6 14.17 (18:40) 8.89 (07:10) 0 0 0 0 0
31-08-2018 26.8 (13:50) 18.9 (00:00) 22.8 19.17 (07:20) 13.33 (16:20) 0 0 0 0 0
30-08-2018 27.3 (13:20) 19.7 (00:00) 23.5 22.22 (00:10) 15.56 (00:20) 0 0 0 0 0
29-08-2018 26.7 (15:20) 19.4 (00:00) 23.1 26.67 (10:40) 14.72 (10:50) 0 0 0 0 0
28-08-2018 27.6 (11:20) 20.2 (00:00) 23.9 15.28 (13:20) 11.11 (15:20) 0 0 0 0 0
27-08-2018 30.2 (15:10) 23.5 (00:00) 26.9 16.39 (18:40) 10.83 (12:30) 0 0 0 0 0
26-08-2018 32.2 (14:40) 25.1 (00:00) 28.7 14.72 (16:10) 10 (15:10) 0 0 0 0 0
25-08-2018 34.1 (15:40) 26.3 (00:00) 30.2 11.11 (08:30) 7.5 (08:20) 0 0 0 0 0

Gráficas

Temp. máximas Temp. mínimas Temp. medias Precipitaciones Rachas de viento máximas Velocidades máximas media en intervalos de 10 minutos

Datos horarios

Fecha y hora oficial Temperatura (ºC) Velocidad del viento (km/h) Dirección del viento Racha (km/h) Dirección de racha Precipitación (mm) Presión (hPa) Tendencia (hPa) Humedad (%)
2018-09-23 23:00:00 29.2 29 Norte 48 Norte 0 -- -- 35
2018-09-23 22:00:00 29 32 Norte 41 Norte 0 -- -- 37
2018-09-23 21:00:00 30 15 Norte 30 Norte 0 -- -- 40
2018-09-23 20:00:00 31 22 Norte 35 Norte 0 -- -- 33
2018-09-23 19:00:00 31.7 23 Norte 42 Norte 0 -- -- 33
2018-09-23 18:00:00 33.3 23 Norte 43 Norte 0 -- -- 31
2018-09-23 17:00:00 32.4 28 Norte 43 Norte 0 -- -- 40
2018-09-23 16:00:00 35.5 23 Nordeste 37 Nordeste 0 -- -- 33
2018-09-23 15:00:00 35.2 18 Nordeste 39 Nordeste 0 -- -- 33
2018-09-23 14:00:00 32.3 30 Nordeste 41 Nordeste 0 -- -- 47
2018-09-23 13:00:00 34.5 21 Norte 36 Norte 0 -- -- 30
2018-09-23 12:00:00 34.7 22 Norte 34 Norte 0 -- -- 29
2018-09-23 11:00:00 33.4 23 Norte 38 Norte 0 -- -- 30
2018-09-23 10:00:00 31 19 Norte 35 Norte 0 -- -- 33
2018-09-23 09:00:00 29.3 22 Norte 33 Norte 0 -- -- 36
2018-09-23 08:00:00 28 17 Norte 34 Nordeste 0 -- -- 38
2018-09-23 07:00:00 27.9 23 Norte 40 Norte 0 -- -- 39
2018-09-23 06:00:00 27.4 22 Norte 49 Norte 0 -- -- 40
2018-09-23 05:00:00 25 28 Norte 47 Norte 0 -- -- 44
2018-09-23 04:00:00 25.6 32 Norte 46 Norte 0 -- -- 46
2018-09-23 03:00:00 26.1 30 Norte 42 Norte 0 -- -- 45
2018-09-23 02:00:00 26.1 23 Norte 49 Norte 0 -- -- 44
2018-09-23 01:00:00 27 31 Norte 48 Norte 0 -- -- 42
2018-09-23 00:00:00 25.7 20 Norte 33 Norte 0 -- -- 46
2018-09-22 23:00:00 21.8 6 Sudoeste 16 Sur 0 -- -- 78
2018-09-22 22:00:00 22.3 5 Sur 13 Sur 0 -- -- 73
2018-09-22 21:00:00 23.5 10 Sur 15 Sudoeste 0 -- -- 69
2018-09-22 20:00:00 27.5 9 Noroeste 27 Norte 0 -- -- 52
2018-09-22 19:00:00 26.9 19 Norte 38 Nordeste 0 -- -- 55
2018-09-22 18:00:00 27.5 26 Nordeste 42 Nordeste 0 -- -- 54
2018-09-22 17:00:00 30.2 25 Nordeste 41 Nordeste 0 -- -- 49
2018-09-22 16:00:00 29.3 34 Nordeste 48 Nordeste 0 -- -- 51
2018-09-22 15:00:00 29.3 30 Nordeste 46 Nordeste 0 -- -- 52
2018-09-22 14:00:00 28.3 30 Nordeste 47 Nordeste 0 -- -- 54
2018-09-22 13:00:00 27.8 28 Nordeste 48 Nordeste 0 -- -- 55
2018-09-22 12:00:00 26.2 31 Nordeste 43 Norte 0 -- -- 58
2018-09-22 11:00:00 26 16 Nordeste 33 Norte 0 -- -- 57
2018-09-22 10:00:00 22.9 8 Sur 13 Sur 0 -- -- 69
2018-09-22 09:00:00 19.8 0 Calma 8 Oeste 0 -- -- 83
2018-09-22 08:00:00 18 5 Noroeste 13 Norte 0 -- -- 83
2018-09-22 07:00:00 19.2 8 Norte 31 Norte 0 -- -- 75
2018-09-22 06:00:00 19.1 3 Sur 30 Norte 0 -- -- 80
2018-09-22 05:00:00 19.8 3 Sudoeste 46 Norte 0 -- -- 76
2018-09-22 04:00:00 19.6 28 Norte 44 Norte 0 -- -- 74
2018-09-22 03:00:00 19.6 19 Norte 40 Norte 0 -- -- 74
2018-09-22 02:00:00 19.8 22 Norte 38 Norte 0 -- -- 74
2018-09-22 01:00:00 19.9 25 Norte 38 Norte 0 -- -- 78
2018-09-22 00:00:00 20.1 22 Norte 33 Norte 0 -- -- 74
2018-09-21 23:00:00 20.3 19 Norte 39 Norte 0 -- -- 71
2018-09-21 22:00:00 20.6 19 Norte 31 Norte 0 -- -- 73
2018-09-21 21:00:00 21.1 22 Norte 33 Nordeste 0 -- -- 73
2018-09-21 20:00:00 21.9 24 Norte 42 Norte 0 -- -- 70
2018-09-21 19:00:00 23.3 31 Norte 44 Nordeste 0 -- -- 67
2018-09-21 18:00:00 25.4 27 Nordeste 43 Norte 0 -- -- 61
2018-09-21 17:00:00 26.6 24 Norte 47 Nordeste 0 -- -- 60
2018-09-21 16:00:00 26.8 32 Nordeste 47 Nordeste 0 -- -- 54
2018-09-21 15:00:00 27.1 32 Nordeste 53 Nordeste 0 -- -- 54
2018-09-21 14:00:00 26.5 32 Nordeste 50 Norte 0 -- -- 57
2018-09-21 13:00:00 25.4 36 Nordeste 50 Nordeste 0 -- -- 62
2018-09-21 12:00:00 25.1 30 Nordeste 51 Norte 0 -- -- 63
2018-09-21 11:00:00 23.8 31 Norte 46 Norte 0 -- -- 62
2018-09-21 10:00:00 22.7 26 Norte 42 Norte 0 -- -- 65
2018-09-21 09:00:00 21 22 Norte 38 Norte 0 -- -- 70
2018-09-21 08:00:00 19.8 23 Norte 42 Norte 0 -- -- 76
2018-09-21 07:00:00 19.8 30 Norte 43 Norte 0 -- -- 77
2018-09-21 06:00:00 19.7 18 Norte 42 Norte 0 -- -- 77
2018-09-21 05:00:00 19.6 31 Norte 43 Norte 0 -- -- 79
2018-09-21 04:00:00 19.6 7 Norte 27 Norte 0 -- -- 78
2018-09-21 03:00:00 19.9 9 Norte 28 Norte 0 -- -- 76
2018-09-21 02:00:00 20 6 Nordeste 29 Norte 0 -- -- 75
2018-09-21 01:00:00 20.1 2 Nordeste 22 Norte 0 -- -- 76
2018-09-21 00:00:00 20.6 14 Norte 36 Norte 0 -- -- 78
2018-09-20 23:00:00 20.8 28 Norte 41 Norte 0 -- -- 81
2018-09-20 22:00:00 21.3 26 Norte 38 Nordeste 0 -- -- 78
2018-09-20 21:00:00 21.4 25 Norte 37 Norte 0 -- -- 78
2018-09-20 20:00:00 22.1 22 Norte 39 Norte 0 -- -- 77
2018-09-20 19:00:00 23.6 29 Norte 46 Nordeste 0 -- -- 72
2018-09-20 18:00:00 25.9 22 Nordeste 40 Norte 0 -- -- 65
2018-09-20 17:00:00 26.6 23 Nordeste 40 Nordeste 0 -- -- 62
2018-09-20 16:00:00 26.7 28 Nordeste 42 Nordeste 0 -- -- 64
2018-09-20 15:00:00 27.9 24 Nordeste 40 Nordeste 0 -- -- 59
2018-09-20 14:00:00 28 25 Nordeste 37 Nordeste 0 -- -- 59
2018-09-20 13:00:00 27.8 24 Nordeste 35 Nordeste 0 -- -- 61
2018-09-20 12:00:00 26.7 22 Nordeste 33 Nordeste 0 -- -- 64
2018-09-20 11:00:00 26.2 18 Nordeste 25 Nordeste 0 -- -- 66
2018-09-20 10:00:00 23.6 10 Nordeste 15 Nordeste 0 -- -- 76
2018-09-20 09:00:00 20.6 3 Nordeste 5 Norte 0 -- -- 85
2018-09-20 08:00:00 19.2 2 Sur 5 Nordeste 0 -- -- 85
2018-09-20 07:00:00 19.1 4 Norte 6 Norte 0 -- -- 83
2018-09-20 06:00:00 19.6 5 Norte 16 Norte 0 -- -- 87
2018-09-20 05:00:00 19.9 10 Norte 13 Nordeste 0 -- -- 88
2018-09-20 04:00:00 20.3 6 Norte 19 Norte 0 -- -- 86
2018-09-20 03:00:00 20.4 13 Norte 24 Nordeste 0 -- -- 84
2018-09-20 02:00:00 20.5 13 Nordeste 26 Norte 0 -- -- 85
2018-09-20 01:00:00 20.7 15 Nordeste 29 Norte 0 -- -- 84
2018-09-20 00:00:00 20.7 21 Norte 29 Nordeste 0 -- -- 87
2018-09-19 23:00:00 21.4 18 Norte 26 Norte 0 -- -- 84
2018-09-19 22:00:00 21.5 15 Nordeste 29 Nordeste 0 -- -- 84
2018-09-19 21:00:00 21.4 19 Nordeste 29 Nordeste 0 -- -- 84
2018-09-19 20:00:00 22.5 15 Nordeste 28 Nordeste 0 -- -- 79
2018-09-19 19:00:00 24.4 20 Nordeste 34 Nordeste 0 -- -- 71
2018-09-19 18:00:00 25.7 22 Nordeste 37 Nordeste 0 -- -- 68
2018-09-19 17:00:00 27.8 20 Nordeste 31 Nordeste 0 -- -- 60
2018-09-19 16:00:00 28.2 21 Nordeste 32 Nordeste 0 -- -- 59
2018-09-19 15:00:00 28.6 15 Nordeste 26 Este 0 -- -- 59
2018-09-19 14:00:00 28.5 10 Nordeste 22 Sudeste 0 -- -- 56
2018-09-19 13:00:00 27.8 12 Sur 26 Sur 0 -- -- 55
2018-09-19 12:00:00 28.1 12 Sur 24 Sur 0 -- -- 48
2018-09-19 11:00:00 23.6 7 Norte 26 Nordeste 0 -- -- 71
2018-09-19 10:00:00 22.3 19 Norte 33 Nordeste 0 -- -- 76
2018-09-19 09:00:00 20.7 20 Nordeste 35 Nordeste 0 -- -- 86
2018-09-19 08:00:00 19.6 19 Norte 33 Nordeste 0 -- -- 84
2018-09-19 07:00:00 19.8 23 Nordeste 36 Norte 0 -- -- 87
2018-09-19 06:00:00 19.7 22 Nordeste 39 Norte 0 -- -- 85
2018-09-19 05:00:00 19.9 26 Nordeste 43 Norte 0 -- -- 87
2018-09-19 04:00:00 20.6 27 Norte 45 Norte 0 -- -- 78
2018-09-19 03:00:00 20.4 31 Norte 44 Norte 0 -- -- 85
2018-09-19 02:00:00 21 31 Norte 44 Norte 0 -- -- 76
2018-09-19 01:00:00 20.6 27 Nordeste 43 Nordeste 0 -- -- 83
2018-09-19 00:00:00 20.7 26 Norte 47 Norte 0 -- -- 80
2018-09-18 23:00:00 20.7 26 Norte 43 Nordeste 0 -- -- 80
2018-09-18 22:00:00 21.1 18 Norte 36 Norte 0 -- -- 78
2018-09-18 21:00:00 21.3 20 Nordeste 33 Norte 0 -- -- 77
2018-09-18 20:00:00 21.8 23 Norte 39 Norte 0 -- -- 75
2018-09-18 19:00:00 23.3 25 Norte 37 Nordeste 0 -- -- 71
2018-09-18 18:00:00 25.5 22 Nordeste 39 Nordeste 0 -- -- 60
2018-09-18 17:00:00 26.1 25 Nordeste 39 Nordeste 0 -- -- 57
2018-09-18 16:00:00 26.5 26 Nordeste 39 Nordeste 0 -- -- 57
2018-09-18 15:00:00 27 25 Nordeste 40 Nordeste 0 -- -- 54
2018-09-18 14:00:00 26.4 26 Nordeste 41 Nordeste 0 -- -- 59
2018-09-18 13:00:00 26.1 25 Nordeste 36 Nordeste 0 -- -- 61
2018-09-18 12:00:00 25.8 24 Nordeste 38 Nordeste 0 -- -- 58
2018-09-18 11:00:00 23.6 22 Norte 33 Nordeste 0 -- -- 64
2018-09-18 10:00:00 21.4 23 Nordeste 36 Nordeste 0 -- -- 75
2018-09-18 09:00:00 20.9 20 Nordeste 32 Norte 0 -- -- 77
2018-09-18 08:00:00 20.3 17 Norte 30 Nordeste 0 -- -- 74
2018-09-18 07:00:00 20.3 17 Nordeste 29 Nordeste 0 -- -- 82
2018-09-18 06:00:00 20.4 18 Norte 32 Norte 0 -- -- 81
2018-09-18 05:00:00 20.4 21 Norte 34 Nordeste 0 -- -- 78
2018-09-18 04:00:00 20.5 20 Norte 40 Norte 0 -- -- 74
2018-09-18 03:00:00 20.1 24 Norte 37 Norte 0 -- -- 78
2018-09-18 02:00:00 20.5 22 Norte 35 Norte 0 -- -- 76
2018-09-18 01:00:00 20.3 23 Norte 34 Norte 0 -- -- 78
2018-09-18 00:00:00 20.1 20 Norte 32 Norte 0 -- -- 78
2018-09-17 23:00:00 20.6 19 Norte 35 Norte 0 -- -- 78
2018-09-17 22:00:00 20.6 21 Norte 32 Norte 0 -- -- 77
2018-09-17 21:00:00 20.9 19 Norte 33 Nordeste 0 -- -- 74
2018-09-17 20:00:00 21.7 21 Nordeste 39 Norte 0 -- -- 70
2018-09-17 19:00:00 23.1 28 Nordeste 40 Nordeste 0 -- -- 67
2018-09-17 18:00:00 25.5 27 Nordeste 43 Nordeste 0 -- -- 58
2018-09-17 17:00:00 25.6 32 Nordeste 46 Nordeste 0 -- -- 59
2018-09-17 16:00:00 26.3 30 Nordeste 46 Nordeste 0 -- -- 56
2018-09-17 15:00:00 26 33 Nordeste 50 Nordeste 0 -- -- 56
2018-09-17 14:00:00 25.7 34 Nordeste 49 Nordeste 0 -- -- 61
2018-09-17 13:00:00 26.1 30 Nordeste 48 Nordeste 0 -- -- 59
2018-09-17 12:00:00 25.2 30 Nordeste 42 Nordeste 0 -- -- 57
2018-09-17 11:00:00 23.9 24 Norte 37 Norte 0 -- -- 60
2018-09-17 10:00:00 22.4 22 Norte 35 Nordeste 0 -- -- 67
2018-09-17 09:00:00 20.4 14 Norte 31 Norte 0 -- -- 75
2018-09-17 08:00:00 18.2 9 Norte 19 Norte 0 -- -- 89
2018-09-17 07:00:00 18.1 5 Noroeste 8 Oeste 0 -- -- 91
2018-09-17 06:00:00 18 3 Oeste 5 Oeste 0 -- -- 91
2018-09-17 05:00:00 18.3 3 Noroeste 6 Sudoeste 0 -- -- 91
2018-09-17 04:00:00 18.5 0 Calma 5 Oeste 0 -- -- 89
2018-09-17 03:00:00 18.7 0 Calma 3 Noroeste 0 -- -- 88
2018-09-17 02:00:00 19.2 0 Calma 6 Oeste 0 -- -- 86
2018-09-17 01:00:00 19.7 3 Sudoeste 6 Sur 0 -- -- 83
2018-09-17 00:00:00 20.2 3 Sudeste 9 Sur 0 -- -- 80
2018-09-16 23:00:00 20.8 0 Calma 10 Noroeste 0 -- -- 74
2018-09-16 22:00:00 21.9 15 Norte 37 Norte 0 -- -- 67
2018-09-16 21:00:00 21.7 21 Norte 36 Norte 0 -- -- 68
2018-09-16 20:00:00 22.7 25 Norte 46 Norte 0 -- -- 63
2018-09-16 19:00:00 23.5 32 Norte 49 Norte 0 -- -- 65
2018-09-16 18:00:00 25.3 33 Norte 51 Norte 0 -- -- 60
2018-09-16 17:00:00 26.4 35 Norte 54 Nordeste 0 -- -- 56
2018-09-16 16:00:00 27.8 33 Norte 51 Norte 0 -- -- 53
2018-09-16 15:00:00 27.7 36 Norte 53 Nordeste 0 -- -- 53
2018-09-16 14:00:00 27.7 36 Norte 54 Norte 0 -- -- 51
2018-09-16 13:00:00 28.1 33 Norte 50 Nordeste 0 -- -- 51
2018-09-16 12:00:00 27.5 23 Norte 42 Nordeste 0 -- -- 51
2018-09-16 11:00:00 26.3 23 Norte 37 Norte 0 -- -- 52
2018-09-16 10:00:00 24.6 20 Norte 40 Norte 0 -- -- 55
2018-09-16 09:00:00 22.5 21 Norte 33 Nordeste 0 -- -- 66
2018-09-16 08:00:00 21.1 18 Norte 29 Norte 0 -- -- 73
2018-09-16 07:00:00 21.1 20 Norte 38 Norte 0 -- -- 69
2018-09-16 06:00:00 21 24 Norte 33 Norte 0 -- -- 71
2018-09-16 05:00:00 20.8 19 Norte 33 Norte 0 -- -- 73
2018-09-16 04:00:00 21.5 19 Norte 33 Nordeste 0 -- -- 70
2018-09-16 03:00:00 21.5 21 Norte 37 Norte 0 -- -- 64
2018-09-16 02:00:00 21.6 24 Norte 43 Norte 0 -- -- 64
2018-09-16 01:00:00 21.6 27 Norte 43 Norte 0 -- -- 63
2018-09-16 00:00:00 22.6 6 Norte 40 Norte 0 -- -- 54
2018-09-15 23:00:00 23 24 Norte 41 Norte 0 -- -- 54
2018-09-15 22:00:00 23 22 Norte 48 Norte 0 -- -- 49
2018-09-15 21:00:00 21.8 29 Norte 45 Norte 0 -- -- 57
2018-09-15 20:00:00 22.9 15 Noroeste 38 Norte 0 -- -- 57
2018-09-15 19:00:00 24.3 10 Sur 28 Sur 0 -- -- 68
2018-09-15 18:00:00 26.1 17 Sur 35 Sur 0 -- -- 61
2018-09-15 17:00:00 27.1 27 Sur 39 Sur 0 -- -- 57
2018-09-15 16:00:00 28.2 13 Sudeste 42 Nordeste 0 -- -- 47
2018-09-15 15:00:00 27.3 28 Nordeste 47 Nordeste 0 -- -- 50
2018-09-15 14:00:00 28.7 32 Nordeste 45 Nordeste 0 -- -- 44
2018-09-15 13:00:00 29.1 27 Norte 43 Nordeste 0 -- -- 39
2018-09-15 12:00:00 28.1 24 Norte 39 Norte 0 -- -- 48
2018-09-15 11:00:00 26.8 18 Nordeste 37 Norte 0 -- -- 53
2018-09-15 10:00:00 24.1 7 Nordeste 29 Norte 0 -- -- 64
2018-09-15 09:00:00 21.7 17 Norte 32 Norte 0 -- -- 77
2018-09-15 08:00:00 20.9 4 Norte 23 Nordeste 0 -- -- 84
2018-09-15 07:00:00 21.3 14 Nordeste 27 Nordeste 0 -- -- 83
2018-09-15 06:00:00 21.5 13 Nordeste 22 Nordeste 0 -- -- 84
2018-09-15 05:00:00 21.7 13 Nordeste 19 Norte 0 -- -- 83
2018-09-15 04:00:00 22 12 Nordeste 18 Nordeste 0 -- -- 81
2018-09-15 03:00:00 22.4 13 Norte 19 Norte 0 -- -- 80
2018-09-15 02:00:00 22.2 9 Nordeste 18 Nordeste 0 -- -- 81
2018-09-15 01:00:00 22.6 6 Norte 13 Norte 0 -- -- 80
2018-09-15 00:00:00 23.3 6 Este 9 Este 0 -- -- 78
2018-09-14 23:00:00 23.9 5 Sur 21 Nordeste 0 -- -- 79
2018-09-14 22:00:00 24 18 Nordeste 25 Norte 0 -- -- 76
2018-09-14 21:00:00 23.8 13 Nordeste 20 Nordeste 0 -- -- 82
2018-09-14 20:00:00 24.6 11 Nordeste 21 Nordeste 0 -- -- 78
2018-09-14 19:00:00 26.3 14 Nordeste 23 Nordeste 0 -- -- 72
2018-09-14 18:00:00 28.3 14 Nordeste 22 Este 0 -- -- 63
2018-09-14 17:00:00 29.2 9 Nordeste 20 Este 0 -- -- 53
2018-09-14 16:00:00 29.5 10 Este 17 Nordeste 0 -- -- 52
2018-09-14 15:00:00 29.1 9 Este 21 Sur 0 -- -- 53
2018-09-14 14:00:00 28.3 12 Sudeste 21 Este 0 -- -- 55
2018-09-14 13:00:00 28.4 10 Sudeste 24 Sudeste 0 -- -- 58
2018-09-14 12:00:00 27.5 7 Este 14 Este 0 -- -- 66
2018-09-14 11:00:00 26.8 10 Este 16 Nordeste 0 -- -- 67
2018-09-14 10:00:00 25.6 7 Sudeste 13 Este 0 -- -- 66
2018-09-14 09:00:00 22.5 5 Nordeste 9 Norte 0 -- -- 79
2018-09-14 08:00:00 21.2 4 Sudoeste 9 Sudoeste 0 -- -- 85
2018-09-14 07:00:00 21.9 5 Sudoeste 12 Norte 0 -- -- 78
2018-09-14 06:00:00 23.2 9 Norte 17 Norte 0 -- -- 66
2018-09-14 05:00:00 24.1 11 Norte 19 Norte 0 -- -- 63
2018-09-14 04:00:00 24 16 Norte 24 Norte 0 -- -- 62
2018-09-14 03:00:00 24.3 14 Nordeste 26 Nordeste 0 -- -- 61
2018-09-14 02:00:00 24 17 Nordeste 27 Nordeste 0 -- -- 59
2018-09-14 01:00:00 25.2 18 Nordeste 27 Norte 0 -- -- 54
2018-09-14 00:00:00 25.2 19 Nordeste 28 Norte 0 -- -- 53
2018-09-13 23:00:00 25.5 19 Nordeste 26 Nordeste 0 -- -- 52
2018-09-13 22:00:00 26.7 14 Norte 21 Nordeste 0 -- -- 49
2018-09-13 21:00:00 26.1 12 Norte 17 Norte 0 -- -- 52
2018-09-13 20:00:00 27.2 7 Nordeste 14 Norte 0 -- -- 54
2018-09-13 19:00:00 28.2 3 Sur 14 Sudeste 0 -- -- 50
2018-09-13 18:00:00 29.8 12 Sudeste 23 Sur 0 -- -- 42
2018-09-13 17:00:00 31.5 10 Sudeste 18 Sur 0 -- -- 38
2018-09-13 16:00:00 31.1 9 Sur 20 Sur 0 -- -- 41
2018-09-13 15:00:00 30.6 8 Sudeste 23 Sur 0 -- -- 45
2018-09-13 14:00:00 31.2 9 Sur 21 Sudeste 0 -- -- 45
2018-09-13 13:00:00 29.4 8 Sur 17 Sur 0 -- -- 47
2018-09-13 12:00:00 28.2 6 Sur 15 Sur 0 -- -- 52
2018-09-13 11:00:00 26.8 7 Este 13 Este 0 -- -- 59
2018-09-13 10:00:00 25.4 5 Este 18 Este 0 -- -- 66
2018-09-13 09:00:00 23.3 3 Nordeste 8 Norte 0 -- -- 76
2018-09-13 08:00:00 22.9 0 Calma 10 Norte 0 -- -- 73
2018-09-13 07:00:00 23.1 9 Norte 14 Norte 0 -- -- 71
2018-09-13 06:00:00 24.1 12 Norte 15 Norte 0 -- -- 67
2018-09-13 05:00:00 23.9 9 Norte 13 Norte 0 -- -- 68
2018-09-13 04:00:00 24.3 8 Norte 13 Norte 0 -- -- 67
2018-09-13 03:00:00 24.3 9 Norte 13 Norte 0 -- -- 68
2018-09-13 02:00:00 24.2 9 Norte 12 Norte 0 -- -- 68
2018-09-13 01:00:00 24.3 9 Norte 13 Norte 0 -- -- 68
2018-09-13 00:00:00 24.1 4 Nordeste 9 Este 0 -- -- 69
2018-09-12 23:00:00 23.7 8 Norte 18 Nordeste 0 -- -- 72
2018-09-12 22:00:00 23.5 11 Nordeste 17 Nordeste 0 -- -- 76
2018-09-12 21:00:00 23.6 13 Nordeste 19 Nordeste 0 -- -- 78
2018-09-12 20:00:00 24.6 13 Nordeste 18 Nordeste 0 -- -- 74
2018-09-12 19:00:00 27.2 8 Nordeste 19 Sudeste 0 -- -- 65
2018-09-12 18:00:00 29.1 15 Sur 31 Sudeste 0 -- -- 55
2018-09-12 17:00:00 29.4 22 Sudoeste 34 Sur 0 -- -- 53
2018-09-12 16:00:00 28.6 18 Sudoeste 39 Sudoeste 0 -- -- 55
2018-09-12 15:00:00 27.7 17 Sudoeste 44 Oeste 0 -- -- 58
2018-09-12 14:00:00 27.5 17 Sudoeste 40 Sudoeste 0 -- -- 60
2018-09-12 13:00:00 27.8 15 Sur 35 Sur 0 -- -- 60
2018-09-12 12:00:00 28.1 21 Sur 36 Sur 0 -- -- 59
2018-09-12 11:00:00 26.9 13 Sur 24 Sur 0 -- -- 64
2018-09-12 10:00:00 25 4 Sur 14 Sudeste 0 -- -- 69
2018-09-12 09:00:00 21.9 11 Nordeste 18 Nordeste 0 -- -- 76
2018-09-12 08:00:00 20.7 10 Nordeste 20 Norte 0 -- -- 77
2018-09-12 07:00:00 21 12 Nordeste 19 Nordeste 0 -- -- 74
2018-09-12 06:00:00 21.2 11 Nordeste 26 Noroeste 0 -- -- 72
2018-09-12 05:00:00 21.1 16 Norte 24 Nordeste 0 -- -- 68
2018-09-12 04:00:00 22.2 15 Norte 22 Norte 0 -- -- 57
2018-09-12 03:00:00 21.4 12 Norte 45 Norte 0 -- -- 52
2018-09-12 02:00:00 20.1 25 Norte 40 Norte 0 -- -- 83
2018-09-12 01:00:00 20.2 26 Norte 44 Nordeste 0 -- -- 86
2018-09-12 00:00:00 20.2 28 Norte 44 Norte 0 -- -- 81
2018-09-11 23:00:00 20.5 24 Norte 41 Norte 0 -- -- 81
2018-09-11 22:00:00 21 25 Norte 42 Norte 0 -- -- 71
2018-09-11 21:00:00 21.1 26 Norte 40 Norte 0 -- -- 70
2018-09-11 20:00:00 21.6 24 Norte 40 Norte 0 -- -- 72
2018-09-11 19:00:00 23.3 26 Nordeste 41 Nordeste 0 -- -- 63
2018-09-11 18:00:00 25.1 28 Nordeste 45 Nordeste 0 -- -- 53
2018-09-11 17:00:00 25.8 30 Nordeste 49 Nordeste 0 -- -- 50
2018-09-11 16:00:00 25.6 34 Nordeste 54 Nordeste 0 -- -- 53
2018-09-11 15:00:00 25.3 39 Nordeste 54 Nordeste 0 -- -- 58
2018-09-11 14:00:00 25.2 40 Nordeste 57 Nordeste 0 -- -- 60
2018-09-11 13:00:00 25.5 36 Nordeste 54 Norte 0 -- -- 58
2018-09-11 12:00:00 24.6 36 Nordeste 50 Nordeste 0 -- -- 62
2018-09-11 11:00:00 24.3 31 Norte 47 Norte 0 -- -- 58
2018-09-11 10:00:00 23.1 30 Norte 42 Norte 0 -- -- 56
2018-09-11 09:00:00 22 20 Norte 45 Norte 0 -- -- 56
2018-09-11 08:00:00 20.1 24 Norte 41 Norte 0 -- -- 62
2018-09-11 07:00:00 19.4 18 Norte 33 Norte 0 -- -- 65
2018-09-11 06:00:00 19.1 20 Norte 33 Norte 0 -- -- 74
2018-09-11 05:00:00 19.2 23 Norte 34 Norte 0 -- -- 74
2018-09-11 04:00:00 19.4 22 Norte 42 Norte 0 -- -- 78
2018-09-11 03:00:00 19.7 28 Norte 43 Norte 0 -- -- 80
2018-09-11 02:00:00 20.1 28 Norte 44 Norte 0 -- -- 79
2018-09-11 01:00:00 21.2 26 Norte 45 Norte 0 -- -- 67
2018-09-11 00:00:00 20.5 27 Norte 49 Norte 0 -- -- 62
2018-09-10 23:00:00 21 30 Norte 58 Norte 0 -- -- 58
2018-09-10 22:00:00 21.2 28 Norte 53 Norte 0 -- -- 59
2018-09-10 21:00:00 21.1 29 Norte 48 Norte 0 -- -- 63
2018-09-10 20:00:00 21.3 26 Norte 54 Nordeste 0 -- -- 65
2018-09-10 19:00:00 22.9 31 Norte 51 Norte 0 -- -- 61
2018-09-10 18:00:00 24.4 34 Norte 59 Noroeste 0 -- -- 59
2018-09-10 17:00:00 25.4 43 Norte 65 Norte 0 -- -- 51
2018-09-10 16:00:00 25.7 41 Norte 60 Nordeste 0 -- -- 48
2018-09-10 15:00:00 26.1 35 Norte 61 Norte 0 -- -- 45
2018-09-10 14:00:00 25.8 44 Norte 61 Norte 0 -- -- 50
2018-09-10 13:00:00 25.9 37 Norte 58 Nordeste 0 -- -- 52
2018-09-10 12:00:00 24.8 34 Norte 60 Norte 0 -- -- 52
2018-09-10 11:00:00 23.4 37 Norte 56 Norte 0 -- -- 57
2018-09-10 10:00:00 22.1 31 Norte 50 Norte 0 -- -- 60
2018-09-10 09:00:00 20.8 31 Norte 54 Norte 0 -- -- 61
2018-09-10 08:00:00 19.3 28 Norte 56 Norte 0 -- -- 74
2018-09-10 07:00:00 19.8 32 Norte 54 Norte 0 -- -- 68
2018-09-10 06:00:00 19.8 30 Norte 54 Norte 0 -- -- 70
2018-09-10 05:00:00 19.8 37 Norte 64 Norte 0 -- -- 73
2018-09-10 04:00:00 20.4 40 Norte 65 Norte 0 -- -- 64
2018-09-10 03:00:00 20.1 39 Norte 63 Norte 0 -- -- 67
2018-09-10 02:00:00 20.2 37 Norte 57 Norte 0 -- -- 69
2018-09-10 01:00:00 20.4 35 Norte 68 Norte 0 -- -- 74
2018-09-10 00:00:00 20.5 34 Norte 55 Norte 0 -- -- 71
2018-09-09 23:00:00 20.9 35 Norte 65 Noroeste 0 -- -- 63
2018-09-09 22:00:00 21 44 Norte 66 Norte 0 -- -- 54
2018-09-09 21:00:00 20.8 30 Norte 50 Norte 0 -- -- 62
2018-09-09 20:00:00 21.6 32 Norte 53 Norte 0 -- -- 61
2018-09-09 19:00:00 22.8 33 Norte 54 Norte 0 -- -- 56
2018-09-09 18:00:00 24.4 31 Norte 57 Norte 0 -- -- 47
2018-09-09 17:00:00 25 30 Norte 51 Norte 0 -- -- 49
2018-09-09 16:00:00 25.3 31 Norte 50 Nordeste 0 -- -- 48
2018-09-09 15:00:00 25.8 34 Norte 53 Nordeste 0 -- -- 49
2018-09-09 14:00:00 24.1 36 Norte 53 Nordeste 0 -- -- 56
2018-09-09 13:00:00 24.2 29 Norte 50 Nordeste 0 -- -- 54
2018-09-09 12:00:00 23.1 30 Norte 46 Norte 0 -- -- 54
2018-09-09 11:00:00 22.5 27 Norte 47 Norte 0 -- -- 56
2018-09-09 10:00:00 21.4 35 Norte 47 Norte 0 -- -- 58
2018-09-09 09:00:00 19.9 24 Norte 45 Norte 0 -- -- 64
2018-09-09 08:00:00 19.3 30 Norte 49 Norte 0 -- -- 64
2018-09-09 07:00:00 19.2 28 Norte 50 Norte 0 -- -- 61
2018-09-09 06:00:00 19.3 28 Norte 51 Norte 0 -- -- 61
2018-09-09 05:00:00 19.4 31 Norte 48 Norte 0 -- -- 58
2018-09-09 04:00:00 19.4 32 Norte 50 Norte 0 -- -- 59
2018-09-09 03:00:00 19.6 35 Norte 51 Norte 0 -- -- 62
2018-09-09 02:00:00 19.8 27 Norte 50 Norte 0 -- -- 58
2018-09-09 01:00:00 20.1 30 Norte 52 Norte 0 -- -- 53
2018-09-09 00:00:00 20 32 Norte 47 Norte 0 -- -- 55
2018-09-08 23:00:00 20.2 28 Norte 46 Norte 0 -- -- 55
2018-09-08 22:00:00 20.9 28 Norte 50 Norte 0 -- -- 46
2018-09-08 21:00:00 21.1 28 Norte 46 Norte 0 -- -- 46
2018-09-08 20:00:00 20.7 32 Norte 45 Norte 0 -- -- 64
2018-09-08 19:00:00 22.2 30 Norte 48 Nordeste 0 -- -- 61
2018-09-08 18:00:00 23.7 33 Nordeste 51 Nordeste 0 -- -- 57
2018-09-08 17:00:00 24.3 36 Nordeste 56 Nordeste 0 -- -- 53
2018-09-08 16:00:00 24.8 38 Nordeste 55 Norte 0 -- -- 48
2018-09-08 15:00:00 24.8 39 Nordeste 57 Nordeste 0 -- -- 56
2018-09-08 14:00:00 25.1 36 Nordeste 56 Nordeste 0 -- -- 48
2018-09-08 13:00:00 24.6 39 Nordeste 57 Nordeste 0 -- -- 44
2018-09-08 12:00:00 24.3 31 Nordeste 48 Nordeste 0 -- -- 48
2018-09-08 11:00:00 22.4 30 Norte 45 Norte 0 -- -- 61
2018-09-08 10:00:00 20.1 23 Norte 38 Norte 0 -- -- 71
2018-09-08 09:00:00 19.8 23 Norte 38 Norte 0 -- -- 73
2018-09-08 08:00:00 18.7 27 Norte 45 Norte 0 -- -- 78
2018-09-08 07:00:00 19.2 29 Norte 41 Norte 0 -- -- 72
2018-09-08 06:00:00 19.5 26 Norte 42 Norte 0 -- -- 60
2018-09-08 05:00:00 19.7 29 Norte 44 Norte 0 -- -- 57
2018-09-08 04:00:00 19.6 27 Norte 41 Norte 0 -- -- 56
2018-09-08 03:00:00 19.6 27 Norte 43 Norte 0 -- -- 60
2018-09-08 02:00:00 19.9 31 Norte 46 Norte 0 -- -- 59
2018-09-08 01:00:00 19.9 30 Norte 48 Norte 0 -- -- 57
2018-09-08 00:00:00 20 27 Norte 44 Norte 0 -- -- 56
2018-09-07 23:00:00 20.6 23 Norte 47 Norte 0 -- -- 53
2018-09-07 22:00:00 20.5 28 Norte 51 Norte 0 -- -- 63
2018-09-07 21:00:00 20.8 28 Norte 46 Norte 0 -- -- 61
2018-09-07 20:00:00 21.2 32 Norte 46 Norte 0 -- -- 65
2018-09-07 19:00:00 22.9 31 Norte 54 Nordeste 0 -- -- 59
2018-09-07 18:00:00 22.9 34 Norte 51 Norte 0 -- -- 64
2018-09-07 17:00:00 23.9 34 Norte 49 Nordeste 0 -- -- 60
2018-09-07 16:00:00 24.8 34 Norte 50 Norte 0 -- -- 59
2018-09-07 15:00:00 24.5 31 Norte 47 Nordeste 0 -- -- 60
2018-09-07 14:00:00 25.7 29 Norte 47 Nordeste 0 -- -- 57
2018-09-07 13:00:00 25.2 30 Nordeste 46 Nordeste 0 -- -- 57
2018-09-07 12:00:00 24.6 32 Nordeste 46 Nordeste 0 -- -- 58
2018-09-07 11:00:00 22.6 28 Norte 46 Norte 0 -- -- 61
2018-09-07 10:00:00 21.9 32 Norte 46 Norte 0 -- -- 65
2018-09-07 09:00:00 20.6 31 Norte 48 Norte 0 -- -- 71
2018-09-07 08:00:00 20 22 Norte 40 Norte 0 -- -- 67
2018-09-07 07:00:00 19.6 23 Norte 34 Norte 0 -- -- 70
2018-09-07 06:00:00 19.5 26 Norte 40 Norte 0 -- -- 73
2018-09-07 05:00:00 19.5 24 Norte 42 Norte 0 -- -- 79
2018-09-07 04:00:00 19.6 28 Norte 45 Norte 0 -- -- 79
2018-09-07 03:00:00 20.1 28 Norte 48 Norte 0 -- -- 76
2018-09-07 02:00:00 20.5 31 Norte 51 Norte 0 -- -- 72
2018-09-07 01:00:00 20.3 37 Norte 58 Norte 0 -- -- 73
2018-09-07 00:00:00 20.3 39 Norte 59 Norte 0 -- -- 75
2018-09-06 23:00:00 20.5 29 Norte 45 Norte 0 -- -- 72
2018-09-06 22:00:00 20.8 30 Norte 44 Norte 0 -- -- 71
2018-09-06 21:00:00 21 27 Norte 45 Nordeste 0 -- -- 71
2018-09-06 20:00:00 22.8 26 Nordeste 37 Norte 0 -- -- 69
2018-09-06 19:00:00 25.4 21 Norte 39 Norte 0 -- -- 60
2018-09-06 18:00:00 25.6 28 Norte 45 Norte 0 -- -- 61
2018-09-06 17:00:00 25.9 31 Norte 48 Norte 0 -- -- 61
2018-09-06 16:00:00 25.9 30 Norte 48 Nordeste 0 -- -- 60
2018-09-06 15:00:00 26.7 33 Nordeste 46 Norte 0 -- -- 59
2018-09-06 14:00:00 26.4 35 Nordeste 56 Nordeste 0 -- -- 57
2018-09-06 13:00:00 26.8 33 Nordeste 47 Nordeste 0 -- -- 58
2018-09-06 12:00:00 25.4 30 Norte 45 Nordeste 0 -- -- 63
2018-09-06 11:00:00 24.4 29 Norte 48 Norte 0 -- -- 62
2018-09-06 10:00:00 22 32 Norte 53 Norte 0 -- -- 70
2018-09-06 09:00:00 21.5 31 Norte 49 Nordeste 0 -- -- 69
2018-09-06 08:00:00 20.8 30 Norte 44 Norte 0 -- -- 73
2018-09-06 07:00:00 21.4 4 Este 36 Norte 0 -- -- 71
2018-09-06 06:00:00 22.3 21 Nordeste 42 Norte 0 -- -- 55
2018-09-06 05:00:00 22.7 28 Norte 46 Norte 0 -- -- 51
2018-09-06 04:00:00 20.8 24 Norte 51 Norte 0.4 -- -- 74
2018-09-06 03:00:00 21.5 32 Norte 56 Norte 0 -- -- 69
2018-09-06 02:00:00 21.4 33 Norte 52 Norte 0 -- -- 71
2018-09-06 01:00:00 21.4 40 Norte 62 Norte 0 -- -- 69
2018-09-06 00:00:00 21.4 29 Norte 48 Norte 0 -- -- 70
2018-09-05 23:00:00 22.2 5 Noroeste 13 Oeste 0 -- -- 67
2018-09-05 22:00:00 23.8 14 Noroeste 42 Norte 0 -- -- 57
2018-09-05 21:00:00 22.6 35 Norte 51 Norte 0 -- -- 62
2018-09-05 20:00:00 22.8 33 Norte 55 Norte 0 -- -- 67
2018-09-05 19:00:00 23.4 35 Norte 52 Nordeste 0 -- -- 66
2018-09-05 18:00:00 25 34 Nordeste 53 Norte 0 -- -- 62
2018-09-05 17:00:00 25.2 39 Norte 60 Norte 0 -- -- 61
2018-09-05 16:00:00 27.2 36 Nordeste 54 Norte 0 -- -- 57
2018-09-05 15:00:00 27.7 40 Norte 57 Nordeste 0 -- -- 55
2018-09-05 14:00:00 27.8 36 Norte 55 Nordeste 0 -- -- 54
2018-09-05 13:00:00 27.2 28 Norte 49 Norte 0 -- -- 55
2018-09-05 12:00:00 25 31 Norte 49 Norte 0 -- -- 61
2018-09-05 11:00:00 23.9 38 Norte 62 Norte 0 -- -- 61
2018-09-05 10:00:00 22.7 36 Norte 57 Norte 0 -- -- 66
2018-09-05 09:00:00 21 33 Norte 50 Norte 0 -- -- 71
2018-09-05 08:00:00 20.2 30 Norte 44 Norte 0 -- -- 74
2018-09-05 07:00:00 20 8 Norte 21 Oeste 0 -- -- 71
2018-09-05 06:00:00 21 20 Noroeste 53 Norte 0 -- -- 63
2018-09-05 05:00:00 20.8 30 Norte 49 Norte 0 -- -- 64
2018-09-05 04:00:00 21.2 28 Norte 42 Norte 0 -- -- 62
2018-09-05 03:00:00 24.2 24 Norte 35 Norte 0 -- -- 32
2018-09-05 02:00:00 21.5 5 Sur 41 Norte 0 -- -- 62
2018-09-05 01:00:00 22.9 27 Norte 44 Norte 0 -- -- 48
2018-09-05 00:00:00 23.9 31 Norte 51 Norte 0 -- -- 39
2018-09-04 23:00:00 23.4 32 Norte 53 Norte 0 -- -- 42
2018-09-04 22:00:00 23.5 33 Norte 49 Norte 0 -- -- 44
2018-09-04 21:00:00 22.3 28 Norte 40 Norte 0 -- -- 59
2018-09-04 20:00:00 23.4 25 Norte 44 Norte 0 -- -- 57
2018-09-04 19:00:00 24.6 30 Norte 47 Nordeste 0 -- -- 56
2018-09-04 18:00:00 25.2 33 Nordeste 50 Nordeste 0 -- -- 58
2018-09-04 17:00:00 25.7 36 Nordeste 56 Nordeste 0 -- -- 55
2018-09-04 16:00:00 25.9 39 Nordeste 57 Nordeste 0 -- -- 56
2018-09-04 15:00:00 26.9 34 Norte 57 Norte 0 -- -- 54
2018-09-04 14:00:00 26.3 39 Nordeste 56 Nordeste 0 -- -- 54
2018-09-04 13:00:00 27 35 Norte 54 Norte 0 -- -- 53
2018-09-04 12:00:00 25.9 36 Norte 54 Norte 0 -- -- 56
2018-09-04 11:00:00 25 32 Nordeste 49 Norte 0 -- -- 59
2018-09-04 10:00:00 22.9 28 Norte 48 Norte 0 -- -- 65
2018-09-04 09:00:00 21.3 15 Norte 45 Nordeste 0 -- -- 67
2018-09-04 08:00:00 19.3 27 Norte 41 Norte 0 -- -- 76
2018-09-04 07:00:00 19.8 26 Norte 45 Norte 0 -- -- 74
2018-09-04 06:00:00 19.8 22 Norte 49 Norte 0 -- -- 76
2018-09-04 05:00:00 19.7 32 Norte 52 Norte 0 -- -- 72
2018-09-04 04:00:00 19.8 21 Norte 40 Norte 0 -- -- 70
2018-09-04 03:00:00 20 19 Norte 38 Nordeste 0 -- -- 70
2018-09-04 02:00:00 20 25 Norte 50 Norte 0 -- -- 69
2018-09-04 01:00:00 20.7 32 Norte 52 Nordeste 0 -- -- 66
2018-09-04 00:00:00 21.2 11 Norte 27 Norte 0 -- -- 59
2018-09-03 23:00:00 21 12 Norte 30 Nordeste 0 -- -- 60
2018-09-03 22:00:00 21.3 27 Norte 42 Nordeste 0 -- -- 64
2018-09-03 21:00:00 22.8 12 Norte 34 Nordeste 0 -- -- 57
2018-09-03 20:00:00 22.6 26 Nordeste 49 Norte 0 -- -- 63
2018-09-03 19:00:00 24.1 36 Norte 50 Norte 0 -- -- 60
2018-09-03 18:00:00 26.4 31 Norte 51 Norte 0 -- -- 51
2018-09-03 17:00:00 27.5 33 Norte 53 Nordeste 0 -- -- 48
2018-09-03 16:00:00 28.2 33 Norte 52 Nordeste 0 -- -- 46
2018-09-03 15:00:00 27.4 33 Norte 50 Nordeste 0 -- -- 53
2018-09-03 14:00:00 27.9 32 Nordeste 46 Nordeste 0 -- -- 50
2018-09-03 13:00:00 27.2 30 Nordeste 50 Norte 0 -- -- 51
2018-09-03 12:00:00 25.6 33 Norte 53 Norte 0 -- -- 55
2018-09-03 11:00:00 24.1 38 Norte 57 Norte 0 -- -- 59
2018-09-03 10:00:00 22.2 36 Norte 57 Norte 0 -- -- 67
2018-09-03 09:00:00 20.6 33 Norte 53 Norte 0 -- -- 71
2018-09-03 08:00:00 19.6 30 Norte 56 Norte 0 -- -- 73
2018-09-03 07:00:00 19.6 40 Norte 54 Norte 0 -- -- 74
2018-09-03 06:00:00 19.7 30 Norte 55 Nordeste 0 -- -- 76
2018-09-03 05:00:00 19.7 39 Norte 63 Norte 0 -- -- 75
2018-09-03 04:00:00 19.9 30 Norte 50 Norte 0 -- -- 74
2018-09-03 03:00:00 20.1 33 Norte 54 Norte 0 -- -- 76
2018-09-03 02:00:00 20.2 31 Norte 55 Norte 0 -- -- 74
2018-09-03 01:00:00 20.3 32 Norte 49 Norte 0 -- -- 77
2018-09-03 00:00:00 20.8 23 Norte 51 Norte 0 -- -- 72
2018-09-02 23:00:00 20.7 30 Norte 50 Norte 0 -- -- 75
2018-09-02 22:00:00 21.1 28 Norte 44 Norte 0 -- -- 70
2018-09-02 21:00:00 21.4 30 Norte 43 Norte 0 -- -- 68
2018-09-02 20:00:00 22.7 27 Norte 45 Norte 0 -- -- 66
2018-09-02 19:00:00 25.6 25 Norte 43 Nordeste 0 -- -- 57
2018-09-02 18:00:00 27.8 26 Nordeste 41 Norte 0 -- -- 52
2018-09-02 17:00:00 30 24 Nordeste 37 Nordeste 0 -- -- 44
2018-09-02 16:00:00 33 17 Nordeste 27 Nordeste 0 -- -- 34
2018-09-02 15:00:00 29.1 14 Norte 42 Nordeste 0 -- -- 43
2018-09-02 14:00:00 25.5 28 Nordeste 46 Nordeste 0 -- -- 56
2018-09-02 13:00:00 25.2 28 Nordeste 43 Norte 0 -- -- 60
2018-09-02 12:00:00 25 28 Nordeste 44 Nordeste 0 -- -- 56
2018-09-02 11:00:00 24.1 23 Norte 39 Nordeste 0 -- -- 60
2018-09-02 10:00:00 22 26 Norte 40 Norte 0 -- -- 65
2018-09-02 09:00:00 20.6 20 Norte 38 Norte 0 -- -- 71
2018-09-02 08:00:00 18.8 20 Norte 32 Norte 0 -- -- 75
2018-09-02 07:00:00 17.1 3 Noroeste 8 Norte 0 -- -- 88
2018-09-02 06:00:00 17.7 2 Noroeste 5 Noroeste 0 -- -- 89
2018-09-02 05:00:00 17.8 2 Sur 8 Norte 0 -- -- 85
2018-09-02 04:00:00 18.3 2 Norte 12 Sur 0 -- -- 85
2018-09-02 03:00:00 18.7 0 Calma 11 Noroeste 0 -- -- 78
2018-09-02 02:00:00 20.1 10 Norte 45 Norte 0 -- -- 64
2018-09-02 01:00:00 19.8 25 Norte 42 Norte 0 -- -- 75
2018-09-02 00:00:00 19.9 3 Norte 32 Norte 0 -- -- 73
2018-09-01 23:00:00 20 4 Noroeste 18 Norte 0 -- -- 74
2018-09-01 22:00:00 20.5 8 Norte 28 Norte 0 -- -- 73
2018-09-01 21:00:00 21 19 Norte 33 Nordeste 0 -- -- 73
2018-09-01 20:00:00 22.2 23 Nordeste 41 Nordeste 0 -- -- 70
2018-09-01 19:00:00 24.1 26 Norte 51 Nordeste 0 -- -- 64
2018-09-01 18:00:00 25.5 25 Nordeste 44 Nordeste 0 -- -- 61
2018-09-01 17:00:00 26.1 25 Norte 44 Nordeste 0 -- -- 56
2018-09-01 16:00:00 26.7 26 Nordeste 41 Nordeste 0 -- -- 56
2018-09-01 15:00:00 27 26 Nordeste 47 Norte 0 -- -- 52
2018-09-01 14:00:00 26.8 30 Nordeste 46 Nordeste 0 -- -- 54
2018-09-01 13:00:00 26.2 32 Nordeste 46 Nordeste 0 -- -- 55
2018-09-01 12:00:00 25.6 31 Nordeste 47 Norte 0 -- -- 54
2018-09-01 11:00:00 24 25 Norte 41 Nordeste 0 -- -- 58
2018-09-01 10:00:00 22.4 26 Norte 39 Norte 0 -- -- 63
2018-09-01 09:00:00 20.5 4 Noroeste 42 Norte 0 -- -- 67
2018-09-01 08:00:00 19.6 26 Norte 47 Norte 0 -- -- 70
2018-09-01 07:00:00 19.4 32 Norte 47 Norte 0 -- -- 71
2018-09-01 06:00:00 19.1 25 Norte 37 Norte 0 -- -- 75
2018-09-01 05:00:00 18.6 8 Norte 31 Noroeste 0 -- -- 73
2018-09-01 04:00:00 19.4 16 Norte 35 Norte 0 -- -- 66
2018-09-01 03:00:00 17.8 7 Norte 14 Nordeste 0 -- -- 75
2018-09-01 02:00:00 17.8 5 Norte 13 Nordeste 0 -- -- 73
2018-09-01 01:00:00 18.2 4 Norte 8 Norte 0 -- -- 72
2018-09-01 00:00:00 18.9 3 Norte 17 Nordeste 0 -- -- 70
2018-08-31 23:00:00 19.6 10 Nordeste 22 Nordeste 0 -- -- 65
2018-08-31 22:00:00 20.2 5 Nordeste 11 Nordeste 0 -- -- 64
2018-08-31 21:00:00 21.7 8 Norte 30 Norte 0 -- -- 59
2018-08-31 20:00:00 22.7 18 Norte 39 Norte 0 -- -- 59
2018-08-31 19:00:00 23.9 30 Norte 45 Norte 0 -- -- 57
2018-08-31 18:00:00 25 34 Norte 55 Norte 0 -- -- 53
2018-08-31 17:00:00 25.6 41 Norte 66 Norte 0 -- -- 52
2018-08-31 16:00:00 26.3 42 Norte 68 Norte 0 -- -- 51
2018-08-31 15:00:00 25.8 46 Norte 63 Norte 0 -- -- 52
2018-08-31 14:00:00 26.7 39 Norte 62 Norte 0 -- -- 49
2018-08-31 13:00:00 26.3 38 Norte 61 Norte 0 -- -- 50
2018-08-31 12:00:00 25.2 37 Norte 56 Norte 0 -- -- 52
2018-08-31 11:00:00 23.8 36 Norte 55 Norte 0 -- -- 55
2018-08-31 10:00:00 22.8 8 Sudoeste 28 Este 0 -- -- 59
2018-08-31 09:00:00 20.7 6 Sur 25 Norte 0 -- -- 70
2018-08-31 08:00:00 20 17 Norte 69 Norte 0 -- -- 61
2018-08-31 07:00:00 19.4 45 Norte 66 Norte 0 -- -- 67
2018-08-31 06:00:00 19.4 41 Norte 65 Norte 0 -- -- 67
2018-08-31 05:00:00 20 46 Norte 65 Norte 0 -- -- 66
2018-08-31 04:00:00 19.8 43 Norte 68 Norte 0 -- -- 65
2018-08-31 03:00:00 19.8 38 Norte 66 Norte 0 -- -- 71
2018-08-31 02:00:00 20.1 37 Norte 62 Norte 0 -- -- 71
2018-08-31 01:00:00 21.2 38 Norte 61 Norte 0 -- -- 63
2018-08-31 00:00:00 21.8 38 Norte 64 Norte 0 -- -- 51
2018-08-30 23:00:00 21.9 37 Norte 66 Nordeste 0 -- -- 57
2018-08-30 22:00:00 21.8 41 Norte 75 Norte 0 -- -- 64
2018-08-30 21:00:00 22.1 36 Norte 71 Norte 0 -- -- 61
2018-08-30 20:00:00 22.4 51 Norte 72 Norte 0 -- -- 60
2018-08-30 19:00:00 23.6 36 Norte 69 Norte 0 -- -- 58
2018-08-30 18:00:00 25.2 40 Norte 62 Norte 0 -- -- 54
2018-08-30 17:00:00 26.3 44 Norte 71 Norte 0 -- -- 52
2018-08-30 16:00:00 26.3 50 Norte 70 Norte 0 -- -- 52
2018-08-30 15:00:00 26.9 47 Norte 66 Norte 0 -- -- 50
2018-08-30 14:00:00 27 43 Norte 69 Norte 0 -- -- 51
2018-08-30 13:00:00 27 42 Norte 65 Norte 0 -- -- 50
2018-08-30 12:00:00 25.6 48 Norte 69 Norte 0 -- -- 53
2018-08-30 11:00:00 24.9 45 Norte 65 Norte 0 -- -- 54
2018-08-30 10:00:00 24 41 Norte 64 Norte 0 -- -- 55
2018-08-30 09:00:00 22.4 43 Norte 64 Norte 0 -- -- 56
2018-08-30 08:00:00 22.4 39 Norte 62 Norte 0 -- -- 49
2018-08-30 07:00:00 21.2 37 Norte 64 Norte 0 -- -- 57
2018-08-30 06:00:00 20.6 41 Norte 60 Norte 0 -- -- 62
2018-08-30 05:00:00 20 41 Norte 71 Norte 0 -- -- 68
2018-08-30 04:00:00 19.8 40 Norte 75 Norte 0 -- -- 72
2018-08-30 03:00:00 19.8 52 Norte 72 Norte 0 -- -- 70
2018-08-30 02:00:00 19.9 45 Norte 73 Norte 0 -- -- 75
2018-08-30 01:00:00 20.2 49 Norte 80 Norte 0 -- -- 71
2018-08-30 00:00:00 20.5 53 Norte 76 Norte 0 -- -- 74
2018-08-29 23:00:00 20.4 43 Norte 72 Norte 0 -- -- 72
2018-08-29 22:00:00 20.7 41 Norte 66 Norte 0 -- -- 72
2018-08-29 21:00:00 21 46 Norte 71 Norte 0 -- -- 70
2018-08-29 20:00:00 22 45 Norte 66 Norte 0 -- -- 68
2018-08-29 19:00:00 23.5 42 Norte 66 Norte 0 -- -- 62
2018-08-29 18:00:00 25 44 Norte 70 Norte 0 -- -- 57
2018-08-29 17:00:00 26.1 44 Norte 66 Norte 0 -- -- 55
2018-08-29 16:00:00 26.2 42 Norte 68 Norte 0 -- -- 57
2018-08-29 15:00:00 26.1 42 Norte 66 Norte 0 -- -- 56
2018-08-29 14:00:00 25.1 45 Nordeste 67 Nordeste 0 -- -- 62
2018-08-29 13:00:00 25.5 44 Norte 67 Nordeste 0 -- -- 58
2018-08-29 12:00:00 24.9 44 Norte 75 Norte 0 -- -- 62
2018-08-29 11:00:00 23.7 53 Norte 96 Norte 0 -- -- 60
2018-08-29 10:00:00 22.5 51 Norte 77 Norte 0 -- -- 64
2018-08-29 09:00:00 21.1 44 Norte 77 Norte 0 -- -- 71
2018-08-29 08:00:00 20 49 Norte 75 Norte 0 -- -- 72
2018-08-29 07:00:00 19.9 40 Norte 60 Norte 0 -- -- 73
2018-08-29 06:00:00 20 26 Norte 54 Norte 0 -- -- 69
2018-08-29 05:00:00 19.9 30 Norte 46 Norte 0 -- -- 69
2018-08-29 04:00:00 19.4 3 Noroeste 36 Norte 0 -- -- 79
2018-08-29 03:00:00 20.8 5 Sur 58 Norte 0 -- -- 72
2018-08-29 02:00:00 20.4 24 Norte 48 Norte 0 -- -- 61
2018-08-29 01:00:00 19.4 5 Sudeste 16 Este 0 -- -- 65
2018-08-29 00:00:00 20.6 4 Noroeste 33 Nordeste 0 -- -- 63
2018-08-28 23:00:00 20.9 25 Norte 45 Nordeste 0 -- -- 58
2018-08-28 22:00:00 20.5 30 Nordeste 49 Norte 0 -- -- 69
2018-08-28 21:00:00 21.3 31 Norte 46 Nordeste 0 -- -- 62
2018-08-28 20:00:00 22.8 30 Norte 43 Norte 0 -- -- 59
2018-08-28 19:00:00 24.6 29 Norte 51 Norte 0 -- -- 57
2018-08-28 18:00:00 26 34 Norte 54 Norte 0 -- -- 53
2018-08-28 17:00:00 26.4 35 Norte 55 Norte 0 -- -- 53
2018-08-28 16:00:00 26.6 36 Nordeste 54 Nordeste 0 -- -- 55
2018-08-28 15:00:00 26.4 36 Nordeste 54 Nordeste 0 -- -- 56
2018-08-28 14:00:00 26.9 37 Nordeste 55 Norte 0 -- -- 54
2018-08-28 13:00:00 26.9 33 Norte 55 Nordeste 0 -- -- 50
2018-08-28 12:00:00 26.7 35 Norte 54 Norte 0 -- -- 50
2018-08-28 11:00:00 26.3 31 Norte 48 Nordeste 0 -- -- 47
2018-08-28 10:00:00 26.7 5 Sudoeste 22 Norte 0 -- -- 37
2018-08-28 09:00:00 23.2 4 Sudoeste 24 Norte 0 -- -- 51
2018-08-28 08:00:00 22.1 22 Norte 42 Noroeste 0 -- -- 39
2018-08-28 07:00:00 21.8 21 Norte 36 Norte 0 -- -- 41
2018-08-28 06:00:00 21.7 21 Norte 46 Norte 0 -- -- 41
2018-08-28 05:00:00 21 27 Norte 47 Norte 0 -- -- 49
2018-08-28 04:00:00 21 14 Norte 37 Norte 0 -- -- 55
2018-08-28 03:00:00 20.3 36 Norte 52 Norte 0 -- -- 60
2018-08-28 02:00:00 20.4 33 Norte 51 Norte 0 -- -- 65
2018-08-28 01:00:00 22 30 Norte 44 Norte 0 -- -- 47
2018-08-28 00:00:00 23.5 26 Norte 53 Norte 0 -- -- 36
2018-08-27 23:00:00 23.9 32 Norte 59 Norte 0 -- -- 35
2018-08-27 22:00:00 24 28 Norte 43 Noroeste 0 -- -- 36
2018-08-27 21:00:00 24.2 26 Norte 46 Norte 0 -- -- 37
2018-08-27 20:00:00 24.8 31 Norte 57 Norte 0 -- -- 40
2018-08-27 19:00:00 26.5 35 Norte 59 Norte 0 -- -- 39
2018-08-27 18:00:00 27.8 36 Norte 54 Norte 0 -- -- 36
2018-08-27 17:00:00 29.1 35 Nordeste 51 Nordeste 0 -- -- 36
2018-08-27 16:00:00 29.9 33 Nordeste 51 Norte 0 -- -- 34
2018-08-27 15:00:00 29.8 31 Norte 48 Norte 0 -- -- 37
2018-08-27 14:00:00 27.5 33 Nordeste 52 Nordeste 0 -- -- 50
2018-08-27 13:00:00 27.1 35 Norte 54 Norte 0 -- -- 50
2018-08-27 12:00:00 26.4 36 Norte 50 Norte 0 -- -- 51
2018-08-27 11:00:00 26.1 33 Norte 50 Norte 0 -- -- 48
2018-08-27 10:00:00 26.9 33 Norte 49 Norte 0 -- -- 34
2018-08-27 09:00:00 25.7 31 Norte 48 Norte 0 -- -- 33
2018-08-27 08:00:00 24.4 28 Norte 43 Norte 0 -- -- 35
2018-08-27 07:00:00 24.4 29 Norte 45 Norte 0 -- -- 34
2018-08-27 06:00:00 24.6 29 Norte 44 Norte 0 -- -- 33
2018-08-27 05:00:00 24.9 31 Norte 46 Norte 0 -- -- 31
2018-08-27 04:00:00 25.3 29 Norte 42 Norte 0 -- -- 29
2018-08-27 03:00:00 25.5 28 Norte 45 Norte 0 -- -- 28
2018-08-27 02:00:00 25.6 28 Norte 45 Norte 0 -- -- 27
2018-08-27 01:00:00 25.8 30 Norte 47 Norte 0 -- -- 25
2018-08-27 00:00:00 25.9 30 Norte 49 Norte 0 -- -- 22
2018-08-26 23:00:00 26 32 Norte 48 Norte 0 -- -- 21
2018-08-26 22:00:00 25.9 29 Norte 44 Norte 0 -- -- 21
2018-08-26 21:00:00 26.7 24 Norte 41 Norte 0 -- -- 21
2018-08-26 20:00:00 27.6 24 Norte 46 Norte 0 -- -- 21
2018-08-26 19:00:00 29.2 32 Norte 51 Nordeste 0 -- -- 21
2018-08-26 18:00:00 30.3 36 Norte 50 Nordeste 0 -- -- 20
2018-08-26 17:00:00 31.1 31 Norte 53 Norte 0 -- -- 23
2018-08-26 16:00:00 31.8 34 Norte 51 Norte 0 -- -- 23
2018-08-26 15:00:00 31.8 35 Norte 53 Norte 0 -- -- 20
2018-08-26 14:00:00 31.9 35 Norte 48 Norte 0 -- -- 20
2018-08-26 13:00:00 31.5 33 Norte 45 Norte 0 -- -- 25
2018-08-26 12:00:00 31.2 26 Nordeste 43 Norte 0 -- -- 32
2018-08-26 11:00:00 30.7 23 Norte 39 Norte 0 -- -- 20
2018-08-26 10:00:00 29.3 27 Norte 41 Norte 0 -- -- 19
2018-08-26 09:00:00 27.5 26 Norte 40 Norte 0 -- -- 21
2018-08-26 08:00:00 25.9 27 Norte 43 Norte 0 -- -- 21
2018-08-26 07:00:00 25.5 27 Norte 40 Norte 0 -- -- 22
2018-08-26 06:00:00 25.5 28 Norte 45 Norte 0 -- -- 22
2018-08-26 05:00:00 25.3 28 Norte 45 Norte 0 -- -- 24
2018-08-26 04:00:00 25.1 28 Norte 42 Norte 0 -- -- 25
2018-08-26 03:00:00 25.6 26 Norte 41 Norte 0 -- -- 24
2018-08-26 02:00:00 26.1 20 Norte 33 Norte 0 -- -- 28
2018-08-26 01:00:00 27.1 21 Norte 35 Norte 0 -- -- 28
2018-08-26 00:00:00 27.4 24 Norte 37 Norte 0 -- -- 30
2018-08-25 23:00:00 27.9 21 Norte 29 Norte 0 -- -- 31
2018-08-25 22:00:00 28 16 Norte 26 Norte 0 -- -- 32
2018-08-25 21:00:00 27.6 14 Norte 27 Norte 0 -- -- 38
2018-08-25 20:00:00 28.7 19 Norte 32 Norte 0 -- -- 38
2018-08-25 19:00:00 30.4 21 Nordeste 33 Nordeste 0 -- -- 41
2018-08-25 18:00:00 31.6 21 Nordeste 32 Nordeste 0 -- -- 43
2018-08-25 17:00:00 32.7 22 Nordeste 35 Nordeste 0 -- -- 33
2018-08-25 16:00:00 33.7 17 Nordeste 30 Nordeste 0 -- -- 28
2018-08-25 15:00:00 33.3 20 Nordeste 37 Nordeste 0 -- -- 28
2018-08-25 14:00:00 33.8 21 Norte 35 Nordeste 0 -- -- 26
2018-08-25 13:00:00 33.5 23 Nordeste 40 Norte 0 -- -- 24
2018-08-25 12:00:00 33.4 24 Nordeste 37 Nordeste 0 -- -- 25
2018-08-25 11:00:00 32.4 24 Nordeste 37 Norte 0 -- -- 23
2018-08-25 10:00:00 31.4 24 Norte 36 Norte 0 -- -- 26
2018-08-25 09:00:00 29.6 27 Norte 40 Norte 0 -- -- 27
2018-08-25 08:00:00 27.7 27 Norte 38 Norte 0 -- -- 31
2018-08-25 07:00:00 27.2 22 Norte 33 Norte 0 -- -- 31
2018-08-25 06:00:00 28.2 22 Norte 35 Norte 0 -- -- 28
2018-08-25 05:00:00 28.5 23 Norte 35 Norte 0 -- -- 26
2018-08-25 04:00:00 28.2 22 Norte 39 Norte 0 -- -- 26
2018-08-25 03:00:00 28.4 22 Norte 34 Norte 0 -- -- 27
2018-08-25 02:00:00 28.7 23 Norte 32 Norte 0 -- -- 25
2018-08-25 01:00:00 29.1 21 Norte 39 Norte 0 -- -- 25
2018-08-25 00:00:00 29.2 25 Norte 40 Norte 0 -- -- 26